This is the latest recevied weather packets stored in our database for station/object IU1OLT-7. If no packets are shown the sender has not sent any weather packets the latest 10 day(s).
| Time | Temp. | Humidity | Pressure | Rain* | Wind** | Luminosity | Snow |
|---|---|---|---|---|---|---|---|
| 1787591319 | 23.33° C | 44% | 1021.6 hPa | - | - | - | - |
| 1787590419 | 24.44° C | 43% | 1022 hPa | - | - | - | - |
| 1787589519 | 28.33° C | 40% | 1021.9 hPa | - | - | - | - |
| 1787588619 | 25° C | 49% | 1022 hPa | - | - | - | - |
| 1787587719 | 25.56° C | 48% | 1022 hPa | - | - | - | - |
| 1787586819 | 30° C | 37% | 1022 hPa | - | - | - | - |
| 1787585919 | 33.89° C | 33% | 1022.2 hPa | - | - | - | - |
| 1787585016 | 34.44° C | 31% | 1022.2 hPa | - | - | - | - |
| 1787584116 | 36.11° C | 30% | 1022.3 hPa | - | - | - | - |
| 1787583216 | 36.67° C | 28% | 1022.4 hPa | - | - | - | - |
| 1787582316 | 36.67° C | 27% | 1022.4 hPa | - | - | - | - |
| 1787581416 | 36.11° C | 32% | 1022.5 hPa | - | - | - | - |
| 1787580516 | 35° C | 33% | 1022.6 hPa | - | - | - | - |
| 1787579616 | 31.67° C | 34% | 1022.8 hPa | - | - | - | - |
| 1787578716 | 34.44° C | 29% | 1022.8 hPa | - | - | - | - |
| 1787577816 | 37.22° C | 25% | 1022.7 hPa | - | - | - | - |
| 1787576916 | 35° C | 28% | 1022.8 hPa | - | - | - | - |
| 1787576016 | 35.56° C | 27% | 1023 hPa | - | - | - | - |
| 1787575116 | 35° C | 28% | 1023.1 hPa | - | - | - | - |
| 1787574216 | 34.44° C | 30% | 1023.1 hPa | - | - | - | - |
| 1787573316 | 36.67° C | 26% | 1023.1 hPa | - | - | - | - |
| 1787572416 | 35.56° C | 25% | 1023.1 hPa | - | - | - | - |
| 1787571516 | 35° C | 29% | 1023.1 hPa | - | - | - | - |
| 1787570616 | 37.22° C | 25% | 1023.1 hPa | - | - | - | - |
| 1787569716 | 35° C | 29% | 1023.2 hPa | - | - | - | - |
* Rain since midnight (hover to see other rain measurements)
** Current wind speed in m/s (hover to see current wind gust speed)